sensor_id;sensor_type;location;lat;lon;timestamp;P1;durP1;ratioP1;P2;durP2;ratioP2
65545;SDS011;52177;55.968;37.498;2023-07-08T00:00:10;10.75;;;9.55;;
65545;SDS011;52177;55.968;37.498;2023-07-08T00:00:44;11.23;;;10.15;;
65545;SDS011;52177;55.968;37.498;2023-07-08T00:01:20;11.27;;;10.23;;
65545;SDS011;52177;55.968;37.498;2023-07-08T00:01:51;12.18;;;10.88;;
65545;SDS011;52177;55.968;37.498;2023-07-08T00:02:21;13.10;;;10.95;;
65545;SDS011;52177;55.968;37.498;2023-07-08T00:02:52;12.68;;;11.48;;
65545;SDS011;52177;55.968;37.498;2023-07-08T00:03:22;12.18;;;11.07;;
65545;SDS011;52177;55.968;37.498;2023-07-08T00:03:53;12.48;;;11.27;;
65545;SDS011;52177;55.968;37.498;2023-07-08T00:04:23;11.65;;;10.65;;
65545;SDS011;52177;55.968;37.498;2023-07-08T00:04:54;12.18;;;11.02;;
65545;SDS011;52177;55.968;37.498;2023-07-08T00:05:24;12.30;;;11.10;;
65545;SDS011;52177;55.968;37.498;2023-07-08T00:05:55;12.00;;;10.80;;
65545;SDS011;52177;55.968;37.498;2023-07-08T00:06:27;10.95;;;9.90;;
65545;SDS011;52177;55.968;37.498;2023-07-08T00:06:57;11.40;;;9.85;;
65545;SDS011;52177;55.968;37.498;2023-07-08T00:07:28;10.60;;;9.60;;
65545;SDS011;52177;55.968;37.498;2023-07-08T00:07:58;11.05;;;9.93;;
65545;SDS011;52177;55.968;37.498;2023-07-08T00:08:28;10.95;;;9.85;;
65545;SDS011;52177;55.968;37.498;2023-07-08T00:08:59;11.02;;;10.00;;
65545;SDS011;52177;55.968;37.498;2023-07-08T00:09:29;11.05;;;9.80;;
65545;SDS011;52177;55.968;37.498;2023-07-08T00:10:00;10.65;;;9.70;;
65545;SDS011;52177;55.968;37.498;2023-07-08T00:10:30;12.60;;;9.50;;
65545;SDS011;52177;55.968;37.498;2023-07-08T00:11:01;10.90;;;9.80;;
65545;SDS011;52177;55.968;37.498;2023-07-08T00:11:31;10.93;;;9.93;;
65545;SDS011;52177;55.968;37.498;2023-07-08T00:12:04;10.48;;;9.48;;
65545;SDS011;52177;55.968;37.498;2023-07-08T00:12:38;10.88;;;9.82;;
65545;SDS011;52177;55.968;37.498;2023-07-08T00:13:09;10.18;;;9.13;;
65545;SDS011;52177;55.968;37.498;2023-07-08T00:13:40;11.50;;;9.43;;
65545;SDS011;52177;55.968;37.498;2023-07-08T00:14:10;10.82;;;9.70;;
65545;SDS011;52177;55.968;37.498;2023-07-08T00:14:41;11.00;;;9.95;;
65545;SDS011;52177;55.968;37.498;2023-07-08T00:15:11;11.65;;;9.98;;
65545;SDS011;52177;55.968;37.498;2023-07-08T00:15:41;10.60;;;9.60;;
65545;SDS011;52177;55.968;37.498;2023-07-08T00:16:13;10.85;;;9.85;;
65545;SDS011;52177;55.968;37.498;2023-07-08T00:16:45;10.35;;;9.45;;
65545;SDS011;52177;55.968;37.498;2023-07-08T00:17:15;10.38;;;9.25;;
65545;SDS011;52177;55.968;37.498;2023-07-08T00:17:45;10.27;;;9.25;;
65545;SDS011;52177;55.968;37.498;2023-07-08T00:18:16;10.27;;;9.27;;
65545;SDS011;52177;55.968;37.498;2023-07-08T00:18:47;10.20;;;9.30;;
65545;SDS011;52177;55.968;37.498;2023-07-08T00:19:18;10.98;;;9.98;;
65545;SDS011;52177;55.968;37.498;2023-07-08T00:19:49;10.63;;;9.63;;
65545;SDS011;52177;55.968;37.498;2023-07-08T00:21:07;11.02;;;9.93;;
65545;SDS011;52177;55.968;37.498;2023-07-08T00:21:19;10.75;;;9.70;;
65545;SDS011;52177;55.968;37.498;2023-07-08T00:21:50;10.93;;;9.82;;
65545;SDS011;52177;55.968;37.498;2023-07-08T00:22:21;9.90;;;8.90;;
65545;SDS011;52177;55.968;37.498;2023-07-08T00:22:54;11.15;;;9.80;;
65545;SDS011;52177;55.968;37.498;2023-07-08T00:23:25;11.00;;;9.93;;
65545;SDS011;52177;55.968;37.498;2023-07-08T00:23:55;10.68;;;9.57;;
65545;SDS011;52177;55.968;37.498;2023-07-08T00:24:25;10.50;;;9.52;;
65545;SDS011;52177;55.968;37.498;2023-07-08T00:24:56;10.35;;;9.13;;
65545;SDS011;52177;55.968;37.498;2023-07-08T00:25:27;11.32;;;10.13;;
65545;SDS011;52177;55.968;37.498;2023-07-08T00:25:57;10.52;;;9.43;;
65545;SDS011;52177;55.968;37.498;2023-07-08T00:26:28;13.13;;;10.15;;
65545;SDS011;52177;55.968;37.498;2023-07-08T00:27:00;10.52;;;9.52;;
65545;SDS011;52177;55.968;37.498;2023-07-08T00:27:31;11.13;;;9.88;;
65545;SDS011;52177;55.968;37.498;2023-07-08T00:28:01;11.05;;;10.10;;
65545;SDS011;52177;55.968;37.498;2023-07-08T00:28:32;12.02;;;9.80;;
65545;SDS011;52177;55.968;37.498;2023-07-08T00:29:02;10.80;;;9.68;;
65545;SDS011;52177;55.968;37.498;2023-07-08T00:29:33;11.68;;;10.00;;
65545;SDS011;52177;55.968;37.498;2023-07-08T00:30:09;12.35;;;10.07;;
65545;SDS011;52177;55.968;37.498;2023-07-08T00:30:49;11.13;;;9.93;;
65545;SDS011;52177;55.968;37.498;2023-07-08T00:31:19;10.82;;;9.77;;
65545;SDS011;52177;55.968;37.498;2023-07-08T00:31:56;10.27;;;9.25;;
65545;SDS011;52177;55.968;37.498;2023-07-08T00:32:26;11.23;;;10.10;;
65545;SDS011;52177;55.968;37.498;2023-07-08T00:32:57;10.50;;;9.50;;
65545;SDS011;52177;55.968;37.498;2023-07-08T00:33:29;14.40;;;10.80;;
65545;SDS011;52177;55.968;37.498;2023-07-08T00:33:59;11.02;;;9.98;;
65545;SDS011;52177;55.968;37.498;2023-07-08T00:34:33;12.32;;;9.80;;
65545;SDS011;52177;55.968;37.498;2023-07-08T00:35:03;11.02;;;9.98;;
65545;SDS011;52177;55.968;37.498;2023-07-08T00:36:12;11.15;;;9.90;;
65545;SDS011;52177;55.968;37.498;2023-07-08T00:36:44;10.55;;;9.60;;
65545;SDS011;52177;55.968;37.498;2023-07-08T00:37:15;13.10;;;10.10;;
65545;SDS011;52177;55.968;37.498;2023-07-08T00:37:45;11.68;;;10.57;;
65545;SDS011;52177;55.968;37.498;2023-07-08T00:38:56;10.65;;;9.65;;
65545;SDS011;52177;55.968;37.498;2023-07-08T00:39:27;10.52;;;9.63;;
65545;SDS011;52177;55.968;37.498;2023-07-08T00:39:57;10.55;;;9.55;;
65545;SDS011;52177;55.968;37.498;2023-07-08T00:40:32;10.43;;;9.43;;
65545;SDS011;52177;55.968;37.498;2023-07-08T00:41:07;11.27;;;10.02;;
65545;SDS011;52177;55.968;37.498;2023-07-08T00:41:41;10.50;;;9.45;;
65545;SDS011;52177;55.968;37.498;2023-07-08T00:42:16;11.20;;;10.02;;
65545;SDS011;52177;55.968;37.498;2023-07-08T00:42:48;10.05;;;9.15;;
65545;SDS011;52177;55.968;37.498;2023-07-08T00:43:23;11.25;;;9.43;;
65545;SDS011;52177;55.968;37.498;2023-07-08T00:44:00;11.20;;;9.65;;
65545;SDS011;52177;55.968;37.498;2023-07-08T00:44:31;10.18;;;9.23;;
65545;SDS011;52177;55.968;37.498;2023-07-08T00:45:04;10.80;;;9.70;;
65545;SDS011;52177;55.968;37.498;2023-07-08T00:45:49;10.27;;;9.38;;
65545;SDS011;52177;55.968;37.498;2023-07-08T00:47:02;10.85;;;9.75;;
65545;SDS011;52177;55.968;37.498;2023-07-08T00:47:34;10.85;;;9.75;;
65545;SDS011;52177;55.968;37.498;2023-07-08T00:48:07;11.02;;;9.93;;
65545;SDS011;52177;55.968;37.498;2023-07-08T00:48:45;11.85;;;10.15;;
65545;SDS011;52177;55.968;37.498;2023-07-08T00:49:55;10.93;;;9.90;;
65545;SDS011;52177;55.968;37.498;2023-07-08T00:50:29;10.20;;;9.20;;
65545;SDS011;52177;55.968;37.498;2023-07-08T00:51:00;11.05;;;9.95;;
65545;SDS011;52177;55.968;37.498;2023-07-08T00:51:30;11.52;;;9.35;;
65545;SDS011;52177;55.968;37.498;2023-07-08T00:53:54;10.40;;;9.40;;
65545;SDS011;52177;55.968;37.498;2023-07-08T00:54:24;16.05;;;10.52;;
65545;SDS011;52177;55.968;37.498;2023-07-08T00:54:55;10.95;;;9.80;;
65545;SDS011;52177;55.968;37.498;2023-07-08T00:55:29;10.05;;;9.20;;
65545;SDS011;52177;55.968;37.498;2023-07-08T00:56:04;11.02;;;9.85;;
65545;SDS011;52177;55.968;37.498;2023-07-08T00:56:49;11.55;;;9.63;;
65545;SDS011;52177;55.968;37.498;2023-07-08T00:57:25;10.90;;;10.00;;
65545;SDS011;52177;55.968;37.498;2023-07-08T00:57:59;14.30;;;10.02;;
65545;SDS011;52177;55.968;37.498;2023-07-08T00:58:31;11.07;;;9.73;;
65545;SDS011;52177;55.968;37.498;2023-07-08T00:59:15;10.52;;;9.50;;
65545;SDS011;52177;55.968;37.498;2023-07-08T01:00:25;10.77;;;9.68;;
65545;SDS011;52177;55.968;37.498;2023-07-08T01:01:01;14.00;;;10.57;;
65545;SDS011;52177;55.968;37.498;2023-07-08T01:01:36;11.60;;;10.00;;
65545;SDS011;52177;55.968;37.498;2023-07-08T01:02:11;14.10;;;10.35;;
65545;SDS011;52177;55.968;37.498;2023-07-08T01:02:48;11.15;;;9.98;;
65545;SDS011;52177;55.968;37.498;2023-07-08T01:03:23;10.82;;;9.70;;
65545;SDS011;52177;55.968;37.498;2023-07-08T01:03:55;11.10;;;10.10;;
65545;SDS011;52177;55.968;37.498;2023-07-08T01:04:32;10.80;;;9.75;;
65545;SDS011;52177;55.968;37.498;2023-07-08T01:05:08;11.98;;;10.77;;
65545;SDS011;52177;55.968;37.498;2023-07-08T01:05:41;10.93;;;9.93;;
65545;SDS011;52177;55.968;37.498;2023-07-08T01:06:13;12.02;;;10.60;;
65545;SDS011;52177;55.968;37.498;2023-07-08T01:06:45;11.15;;;10.15;;
65545;SDS011;52177;55.968;37.498;2023-07-08T01:07:27;11.60;;;9.93;;
65545;SDS011;52177;55.968;37.498;2023-07-08T01:07:59;10.80;;;9.70;;
65545;SDS011;52177;55.968;37.498;2023-07-08T01:08:33;12.60;;;10.48;;
65545;SDS011;52177;55.968;37.498;2023-07-08T01:09:04;11.98;;;10.38;;
65545;SDS011;52177;55.968;37.498;2023-07-08T01:09:39;12.60;;;10.63;;
65545;SDS011;52177;55.968;37.498;2023-07-08T01:10:14;11.55;;;10.35;;
65545;SDS011;52177;55.968;37.498;2023-07-08T01:10:51;11.40;;;10.30;;
65545;SDS011;52177;55.968;37.498;2023-07-08T01:11:24;11.38;;;10.07;;
65545;SDS011;52177;55.968;37.498;2023-07-08T01:11:56;11.25;;;10.23;;
65545;SDS011;52177;55.968;37.498;2023-07-08T01:12:34;11.43;;;10.45;;
65545;SDS011;52177;55.968;37.498;2023-07-08T01:13:08;11.95;;;10.18;;
65545;SDS011;52177;55.968;37.498;2023-07-08T01:13:42;11.23;;;10.13;;
65545;SDS011;52177;55.968;37.498;2023-07-08T01:14:15;11.60;;;10.50;;
65545;SDS011;52177;55.968;37.498;2023-07-08T01:14:49;11.63;;;10.55;;
65545;SDS011;52177;55.968;37.498;2023-07-08T01:15:23;11.80;;;10.65;;
65545;SDS011;52177;55.968;37.498;2023-07-08T01:16:00;11.65;;;10.55;;
65545;SDS011;52177;55.968;37.498;2023-07-08T01:16:30;12.18;;;10.98;;
65545;SDS011;52177;55.968;37.498;2023-07-08T01:17:03;12.50;;;10.55;;
65545;SDS011;52177;55.968;37.498;2023-07-08T01:17:34;11.70;;;10.65;;
65545;SDS011;52177;55.968;37.498;2023-07-08T01:18:05;11.77;;;10.52;;
65545;SDS011;52177;55.968;37.498;2023-07-08T01:18:35;11.65;;;10.60;;
65545;SDS011;52177;55.968;37.498;2023-07-08T01:19:06;11.10;;;10.15;;
65545;SDS011;52177;55.968;37.498;2023-07-08T01:19:44;11.82;;;10.65;;
65545;SDS011;52177;55.968;37.498;2023-07-08T01:20:14;12.20;;;10.70;;
65545;SDS011;52177;55.968;37.498;2023-07-08T01:20:45;12.52;;;11.07;;
65545;SDS011;52177;55.968;37.498;2023-07-08T01:21:28;11.38;;;10.27;;
65545;SDS011;52177;55.968;37.498;2023-07-08T01:22:04;11.82;;;10.73;;
65545;SDS011;52177;55.968;37.498;2023-07-08T01:22:36;11.40;;;10.25;;
65545;SDS011;52177;55.968;37.498;2023-07-08T01:23:07;12.05;;;10.95;;
65545;SDS011;52177;55.968;37.498;2023-07-08T01:23:37;12.02;;;10.82;;
65545;SDS011;52177;55.968;37.498;2023-07-08T01:24:09;11.52;;;10.38;;
65545;SDS011;52177;55.968;37.498;2023-07-08T01:24:41;11.70;;;10.60;;
65545;SDS011;52177;55.968;37.498;2023-07-08T01:25:13;12.07;;;10.88;;
65545;SDS011;52177;55.968;37.498;2023-07-08T01:25:44;11.38;;;10.43;;
65545;SDS011;52177;55.968;37.498;2023-07-08T01:26:15;11.60;;;10.50;;
65545;SDS011;52177;55.968;37.498;2023-07-08T01:26:47;11.60;;;10.20;;
65545;SDS011;52177;55.968;37.498;2023-07-08T01:27:18;11.95;;;10.70;;
65545;SDS011;52177;55.968;37.498;2023-07-08T01:27:52;11.68;;;10.45;;
65545;SDS011;52177;55.968;37.498;2023-07-08T01:28:24;10.82;;;9.85;;
65545;SDS011;52177;55.968;37.498;2023-07-08T01:28:56;10.95;;;9.95;;
65545;SDS011;52177;55.968;37.498;2023-07-08T01:29:27;11.38;;;10.38;;
65545;SDS011;52177;55.968;37.498;2023-07-08T01:29:58;11.27;;;10.27;;
65545;SDS011;52177;55.968;37.498;2023-07-08T01:30:30;11.82;;;10.63;;
65545;SDS011;52177;55.968;37.498;2023-07-08T01:31:01;10.68;;;9.63;;
65545;SDS011;52177;55.968;37.498;2023-07-08T01:31:31;11.80;;;10.55;;
65545;SDS011;52177;55.968;37.498;2023-07-08T01:32:02;11.23;;;10.05;;
65545;SDS011;52177;55.968;37.498;2023-07-08T01:32:39;11.43;;;9.90;;
65545;SDS011;52177;55.968;37.498;2023-07-08T01:33:46;10.85;;;9.85;;
65545;SDS011;52177;55.968;37.498;2023-07-08T01:34:17;12.32;;;10.75;;
65545;SDS011;52177;55.968;37.498;2023-07-08T01:34:48;11.98;;;10.75;;
65545;SDS011;52177;55.968;37.498;2023-07-08T01:35:29;12.68;;;10.95;;
65545;SDS011;52177;55.968;37.498;2023-07-08T01:36:00;11.77;;;10.40;;
65545;SDS011;52177;55.968;37.498;2023-07-08T01:36:31;11.90;;;10.80;;
65545;SDS011;52177;55.968;37.498;2023-07-08T01:37:09;11.30;;;10.27;;
65545;SDS011;52177;55.968;37.498;2023-07-08T01:37:43;11.57;;;10.38;;
65545;SDS011;52177;55.968;37.498;2023-07-08T01:38:21;11.32;;;10.25;;
65545;SDS011;52177;55.968;37.498;2023-07-08T01:38:56;11.75;;;10.55;;
65545;SDS011;52177;55.968;37.498;2023-07-08T01:39:27;12.18;;;10.98;;
65545;SDS011;52177;55.968;37.498;2023-07-08T01:40:56;12.00;;;10.73;;
65545;SDS011;52177;55.968;37.498;2023-07-08T01:41:27;11.80;;;10.60;;
65545;SDS011;52177;55.968;37.498;2023-07-08T01:41:57;12.65;;;11.43;;
65545;SDS011;52177;55.968;37.498;2023-07-08T01:42:28;12.18;;;10.63;;
65545;SDS011;52177;55.968;37.498;2023-07-08T01:42:59;12.88;;;11.25;;
65545;SDS011;52177;55.968;37.498;2023-07-08T01:43:30;12.40;;;11.20;;
65545;SDS011;52177;55.968;37.498;2023-07-08T01:44:00;12.40;;;11.25;;
65545;SDS011;52177;55.968;37.498;2023-07-08T01:44:32;11.93;;;10.73;;
65545;SDS011;52177;55.968;37.498;2023-07-08T01:45:12;11.60;;;10.50;;
65545;SDS011;52177;55.968;37.498;2023-07-08T01:45:44;11.95;;;10.77;;
65545;SDS011;52177;55.968;37.498;2023-07-08T01:46:19;12.13;;;10.75;;
65545;SDS011;52177;55.968;37.498;2023-07-08T01:46:52;12.93;;;10.80;;
65545;SDS011;52177;55.968;37.498;2023-07-08T01:47:25;11.88;;;10.75;;
65545;SDS011;52177;55.968;37.498;2023-07-08T01:48:11;11.90;;;10.65;;
65545;SDS011;52177;55.968;37.498;2023-07-08T01:48:45;12.27;;;11.07;;
65545;SDS011;52177;55.968;37.498;2023-07-08T01:49:21;12.20;;;11.00;;
65545;SDS011;52177;55.968;37.498;2023-07-08T01:49:52;12.10;;;10.90;;
65545;SDS011;52177;55.968;37.498;2023-07-08T01:50:23;11.65;;;10.55;;
65545;SDS011;52177;55.968;37.498;2023-07-08T01:50:56;12.23;;;11.02;;
65545;SDS011;52177;55.968;37.498;2023-07-08T01:51:29;12.00;;;10.90;;
65545;SDS011;52177;55.968;37.498;2023-07-08T01:52:00;12.82;;;11.52;;
65545;SDS011;52177;55.968;37.498;2023-07-08T01:52:31;14.57;;;11.05;;
65545;SDS011;52177;55.968;37.498;2023-07-08T01:53:02;13.85;;;11.35;;
65545;SDS011;52177;55.968;37.498;2023-07-08T01:53:40;12.88;;;11.57;;
65545;SDS011;52177;55.968;37.498;2023-07-08T01:54:11;12.68;;;11.07;;
65545;SDS011;52177;55.968;37.498;2023-07-08T01:54:41;13.02;;;11.18;;
65545;SDS011;52177;55.968;37.498;2023-07-08T01:55:12;11.80;;;10.70;;
65545;SDS011;52177;55.968;37.498;2023-07-08T01:55:42;11.75;;;10.65;;
65545;SDS011;52177;55.968;37.498;2023-07-08T01:56:13;12.55;;;11.45;;
65545;SDS011;52177;55.968;37.498;2023-07-08T01:56:44;12.18;;;10.82;;
65545;SDS011;52177;55.968;37.498;2023-07-08T01:57:14;13.00;;;11.65;;
65545;SDS011;52177;55.968;37.498;2023-07-08T01:57:46;12.88;;;11.57;;
65545;SDS011;52177;55.968;37.498;2023-07-08T01:58:16;13.43;;;11.57;;
65545;SDS011;52177;55.968;37.498;2023-07-08T01:58:47;12.05;;;10.82;;
65545;SDS011;52177;55.968;37.498;2023-07-08T01:59:17;12.55;;;11.05;;
65545;SDS011;52177;55.968;37.498;2023-07-08T01:59:48;13.50;;;11.60;;
65545;SDS011;52177;55.968;37.498;2023-07-08T02:00:18;17.13;;;11.93;;
65545;SDS011;52177;55.968;37.498;2023-07-08T02:00:49;12.32;;;11.30;;
65545;SDS011;52177;55.968;37.498;2023-07-08T02:01:20;13.15;;;11.20;;
65545;SDS011;52177;55.968;37.498;2023-07-08T02:01:51;12.05;;;10.73;;
65545;SDS011;52177;55.968;37.498;2023-07-08T02:02:24;12.15;;;11.05;;
65545;SDS011;52177;55.968;37.498;2023-07-08T02:02:55;11.93;;;10.82;;
65545;SDS011;52177;55.968;37.498;2023-07-08T02:03:25;12.65;;;11.48;;
65545;SDS011;52177;55.968;37.498;2023-07-08T02:03:56;12.15;;;11.02;;
65545;SDS011;52177;55.968;37.498;2023-07-08T02:04:27;11.43;;;10.35;;
65545;SDS011;52177;55.968;37.498;2023-07-08T02:05:00;12.10;;;11.02;;
65545;SDS011;52177;55.968;37.498;2023-07-08T02:05:30;12.40;;;11.15;;
65545;SDS011;52177;55.968;37.498;2023-07-08T02:06:01;11.88;;;10.85;;
65545;SDS011;52177;55.968;37.498;2023-07-08T02:06:32;13.10;;;11.25;;
65545;SDS011;52177;55.968;37.498;2023-07-08T02:07:02;11.68;;;10.57;;
65545;SDS011;52177;55.968;37.498;2023-07-08T02:07:33;13.05;;;10.95;;
65545;SDS011;52177;55.968;37.498;2023-07-08T02:08:03;12.13;;;10.80;;
65545;SDS011;52177;55.968;37.498;2023-07-08T02:08:34;12.50;;;11.40;;
65545;SDS011;52177;55.968;37.498;2023-07-08T02:09:04;12.32;;;11.10;;
65545;SDS011;52177;55.968;37.498;2023-07-08T02:09:36;11.73;;;10.63;;
65545;SDS011;52177;55.968;37.498;2023-07-08T02:10:06;12.02;;;10.85;;
65545;SDS011;52177;55.968;37.498;2023-07-08T02:10:41;11.93;;;10.70;;
65545;SDS011;52177;55.968;37.498;2023-07-08T02:11:12;13.02;;;11.82;;
65545;SDS011;52177;55.968;37.498;2023-07-08T02:11:43;12.32;;;11.32;;
65545;SDS011;52177;55.968;37.498;2023-07-08T02:12:13;11.88;;;10.88;;
65545;SDS011;52177;55.968;37.498;2023-07-08T02:12:43;11.95;;;10.85;;
65545;SDS011;52177;55.968;37.498;2023-07-08T02:13:14;12.10;;;10.68;;
65545;SDS011;52177;55.968;37.498;2023-07-08T02:13:44;12.00;;;10.88;;
65545;SDS011;52177;55.968;37.498;2023-07-08T02:14:14;12.13;;;10.82;;
65545;SDS011;52177;55.968;37.498;2023-07-08T02:14:45;12.20;;;10.70;;
65545;SDS011;52177;55.968;37.498;2023-07-08T02:15:15;13.52;;;10.80;;
65545;SDS011;52177;55.968;37.498;2023-07-08T02:15:46;12.63;;;10.95;;
65545;SDS011;52177;55.968;37.498;2023-07-08T02:16:16;12.05;;;10.70;;
65545;SDS011;52177;55.968;37.498;2023-07-08T02:16:46;11.80;;;10.70;;
65545;SDS011;52177;55.968;37.498;2023-07-08T02:17:17;12.50;;;11.25;;
65545;SDS011;52177;55.968;37.498;2023-07-08T02:17:47;12.15;;;10.70;;
65545;SDS011;52177;55.968;37.498;2023-07-08T02:18:19;11.50;;;10.45;;
65545;SDS011;52177;55.968;37.498;2023-07-08T02:18:49;11.90;;;10.75;;
65545;SDS011;52177;55.968;37.498;2023-07-08T02:19:20;12.02;;;10.82;;
65545;SDS011;52177;55.968;37.498;2023-07-08T02:19:52;12.32;;;11.13;;
65545;SDS011;52177;55.968;37.498;2023-07-08T02:20:22;12.27;;;10.98;;
65545;SDS011;52177;55.968;37.498;2023-07-08T02:20:52;13.00;;;11.23;;
65545;SDS011;52177;55.968;37.498;2023-07-08T02:21:23;12.55;;;11.35;;
65545;SDS011;52177;55.968;37.498;2023-07-08T02:21:53;12.50;;;11.30;;
65545;SDS011;52177;55.968;37.498;2023-07-08T02:22:24;11.82;;;10.73;;
65545;SDS011;52177;55.968;37.498;2023-07-08T02:22:54;11.43;;;10.35;;
65545;SDS011;52177;55.968;37.498;2023-07-08T02:23:25;12.05;;;10.85;;
65545;SDS011;52177;55.968;37.498;2023-07-08T02:23:56;12.00;;;10.80;;
65545;SDS011;52177;55.968;37.498;2023-07-08T02:24:27;11.50;;;10.40;;
65545;SDS011;52177;55.968;37.498;2023-07-08T02:24:57;11.90;;;10.70;;
65545;SDS011;52177;55.968;37.498;2023-07-08T02:25:27;11.82;;;10.73;;
65545;SDS011;52177;55.968;37.498;2023-07-08T02:25:58;11.55;;;10.45;;
65545;SDS011;52177;55.968;37.498;2023-07-08T02:26:29;11.65;;;10.57;;
65545;SDS011;52177;55.968;37.498;2023-07-08T02:27:02;12.20;;;10.98;;
65545;SDS011;52177;55.968;37.498;2023-07-08T02:27:32;12.73;;;11.25;;
65545;SDS011;52177;55.968;37.498;2023-07-08T02:28:03;12.10;;;10.90;;
65545;SDS011;52177;55.968;37.498;2023-07-08T02:28:33;10.93;;;9.98;;
65545;SDS011;52177;55.968;37.498;2023-07-08T02:29:04;11.90;;;10.85;;
65545;SDS011;52177;55.968;37.498;2023-07-08T02:29:34;14.13;;;11.05;;
65545;SDS011;52177;55.968;37.498;2023-07-08T02:30:04;12.48;;;11.18;;
65545;SDS011;52177;55.968;37.498;2023-07-08T02:30:36;12.13;;;10.98;;
65545;SDS011;52177;55.968;37.498;2023-07-08T02:31:06;12.52;;;10.48;;
65545;SDS011;52177;55.968;37.498;2023-07-08T02:31:37;12.05;;;10.88;;
65545;SDS011;52177;55.968;37.498;2023-07-08T02:32:08;11.85;;;10.70;;
65545;SDS011;52177;55.968;37.498;2023-07-08T02:32:40;11.15;;;10.05;;
65545;SDS011;52177;55.968;37.498;2023-07-08T02:33:11;11.63;;;10.60;;
65545;SDS011;52177;55.968;37.498;2023-07-08T02:33:42;11.45;;;10.45;;
65545;SDS011;52177;55.968;37.498;2023-07-08T02:34:12;11.30;;;10.07;;
65545;SDS011;52177;55.968;37.498;2023-07-08T02:34:42;14.82;;;10.70;;
65545;SDS011;52177;55.968;37.498;2023-07-08T02:35:13;12.38;;;10.80;;
65545;SDS011;52177;55.968;37.498;2023-07-08T02:35:43;11.50;;;10.10;;
65545;SDS011;52177;55.968;37.498;2023-07-08T02:36:15;13.70;;;10.93;;
65545;SDS011;52177;55.968;37.498;2023-07-08T02:36:45;11.68;;;10.38;;
65545;SDS011;52177;55.968;37.498;2023-07-08T02:37:16;11.70;;;10.55;;
65545;SDS011;52177;55.968;37.498;2023-07-08T02:37:46;11.18;;;10.23;;
65545;SDS011;52177;55.968;37.498;2023-07-08T02:38:17;10.82;;;9.73;;
65545;SDS011;52177;55.968;37.498;2023-07-08T02:38:47;10.48;;;9.57;;
65545;SDS011;52177;55.968;37.498;2023-07-08T02:39:17;11.10;;;10.05;;
65545;SDS011;52177;55.968;37.498;2023-07-08T02:39:48;11.48;;;10.45;;
65545;SDS011;52177;55.968;37.498;2023-07-08T02:40:18;11.60;;;10.50;;
65545;SDS011;52177;55.968;37.498;2023-07-08T02:40:49;11.35;;;10.35;;
65545;SDS011;52177;55.968;37.498;2023-07-08T02:41:19;11.38;;;10.27;;
65545;SDS011;52177;55.968;37.498;2023-07-08T02:41:49;12.57;;;10.63;;
65545;SDS011;52177;55.968;37.498;2023-07-08T02:42:20;10.93;;;9.82;;
65545;SDS011;52177;55.968;37.498;2023-07-08T02:42:50;11.20;;;10.18;;
65545;SDS011;52177;55.968;37.498;2023-07-08T02:43:21;11.40;;;10.20;;
65545;SDS011;52177;55.968;37.498;2023-07-08T02:43:51;12.00;;;10.80;;
65545;SDS011;52177;55.968;37.498;2023-07-08T02:44:21;11.30;;;10.30;;
65545;SDS011;52177;55.968;37.498;2023-07-08T02:44:52;11.68;;;10.57;;
65545;SDS011;52177;55.968;37.498;2023-07-08T02:45:22;11.02;;;10.05;;
65545;SDS011;52177;55.968;37.498;2023-07-08T02:45:52;11.32;;;10.15;;
65545;SDS011;52177;55.968;37.498;2023-07-08T02:46:23;11.05;;;10.00;;
65545;SDS011;52177;55.968;37.498;2023-07-08T02:46:53;11.32;;;10.27;;
65545;SDS011;52177;55.968;37.498;2023-07-08T02:47:23;11.48;;;10.43;;
65545;SDS011;52177;55.968;37.498;2023-07-08T02:47:54;11.45;;;10.25;;
65545;SDS011;52177;55.968;37.498;2023-07-08T02:48:24;13.90;;;10.30;;
65545;SDS011;52177;55.968;37.498;2023-07-08T02:48:55;10.77;;;9.68;;
65545;SDS011;52177;55.968;37.498;2023-07-08T02:49:25;11.45;;;10.25;;
65545;SDS011;52177;55.968;37.498;2023-07-08T02:49:55;11.70;;;10.55;;
65545;SDS011;52177;55.968;37.498;2023-07-08T02:50:26;11.50;;;9.60;;
65545;SDS011;52177;55.968;37.498;2023-07-08T02:51:00;10.85;;;9.77;;
65545;SDS011;52177;55.968;37.498;2023-07-08T02:51:31;10.98;;;9.88;;
65545;SDS011;52177;55.968;37.498;2023-07-08T02:52:01;12.35;;;9.68;;
65545;SDS011;52177;55.968;37.498;2023-07-08T02:52:32;11.45;;;10.35;;
65545;SDS011;52177;55.968;37.498;2023-07-08T02:53:02;10.77;;;9.70;;
65545;SDS011;52177;55.968;37.498;2023-07-08T02:53:32;11.05;;;9.93;;
65545;SDS011;52177;55.968;37.498;2023-07-08T02:54:03;11.23;;;10.02;;
65545;SDS011;52177;55.968;37.498;2023-07-08T02:54:33;10.43;;;9.52;;
65545;SDS011;52177;55.968;37.498;2023-07-08T02:55:04;11.65;;;10.45;;
65545;SDS011;52177;55.968;37.498;2023-07-08T02:55:34;10.57;;;9.65;;
65545;SDS011;52177;55.968;37.498;2023-07-08T02:56:05;10.48;;;9.48;;
65545;SDS011;52177;55.968;37.498;2023-07-08T02:56:35;10.60;;;9.52;;
65545;SDS011;52177;55.968;37.498;2023-07-08T02:57:06;10.63;;;9.52;;
65545;SDS011;52177;55.968;37.498;2023-07-08T02:57:36;10.38;;;9.25;;
65545;SDS011;52177;55.968;37.498;2023-07-08T02:58:06;10.10;;;9.10;;
65545;SDS011;52177;55.968;37.498;2023-07-08T02:58:37;10.45;;;9.35;;
65545;SDS011;52177;55.968;37.498;2023-07-08T02:59:07;10.27;;;9.35;;
65545;SDS011;52177;55.968;37.498;2023-07-08T02:59:38;10.85;;;9.75;;
65545;SDS011;52177;55.968;37.498;2023-07-08T03:00:09;12.55;;;9.65;;
65545;SDS011;52177;55.968;37.498;2023-07-08T03:00:39;11.23;;;9.95;;
65545;SDS011;52177;55.968;37.498;2023-07-08T03:01:10;10.77;;;9.68;;
65545;SDS011;52177;55.968;37.498;2023-07-08T03:01:40;12.00;;;10.13;;
65545;SDS011;52177;55.968;37.498;2023-07-08T03:02:13;11.48;;;9.63;;
65545;SDS011;52177;55.968;37.498;2023-07-08T03:02:44;10.60;;;9.65;;
65545;SDS011;52177;55.968;37.498;2023-07-08T03:03:15;10.68;;;9.73;;
65545;SDS011;52177;55.968;37.498;2023-07-08T03:03:46;10.15;;;8.95;;
65545;SDS011;52177;55.968;37.498;2023-07-08T03:04:17;10.80;;;9.80;;
65545;SDS011;52177;55.968;37.498;2023-07-08T03:04:49;11.10;;;10.10;;
65545;SDS011;52177;55.968;37.498;2023-07-08T03:05:20;11.32;;;10.23;;
65545;SDS011;52177;55.968;37.498;2023-07-08T03:05:53;10.60;;;9.52;;
65545;SDS011;52177;55.968;37.498;2023-07-08T03:06:28;11.02;;;10.02;;
65545;SDS011;52177;55.968;37.498;2023-07-08T03:06:59;9.90;;;9.00;;
65545;SDS011;52177;55.968;37.498;2023-07-08T03:07:30;10.98;;;9.88;;
65545;SDS011;52177;55.968;37.498;2023-07-08T03:08:00;10.75;;;9.60;;
65545;SDS011;52177;55.968;37.498;2023-07-08T03:08:31;10.07;;;9.02;;
65545;SDS011;52177;55.968;37.498;2023-07-08T03:09:01;10.90;;;9.80;;
65545;SDS011;52177;55.968;37.498;2023-07-08T03:09:31;10.20;;;9.27;;
65545;SDS011;52177;55.968;37.498;2023-07-08T03:10:05;12.18;;;10.13;;
65545;SDS011;52177;55.968;37.498;2023-07-08T03:10:36;10.30;;;9.40;;
65545;SDS011;52177;55.968;37.498;2023-07-08T03:11:07;9.95;;;8.95;;
65545;SDS011;52177;55.968;37.498;2023-07-08T03:11:38;10.00;;;9.10;;